sensor_id;sensor_type;location;lat;lon;timestamp;temperature;humidity
17918;DHT22;9084;50.956;3.106;2022-07-05T00:00:47;16.10;1.00
17918;DHT22;9084;50.956;3.106;2022-07-05T00:03:16;16.00;1.00
17918;DHT22;9084;50.956;3.106;2022-07-05T00:05:42;16.00;1.00
17918;DHT22;9084;50.956;3.106;2022-07-05T00:08:10;15.90;1.00
17918;DHT22;9084;50.956;3.106;2022-07-05T00:10:36;15.80;2.90
17918;DHT22;9084;50.956;3.106;2022-07-05T00:13:04;15.80;3.50
17918;DHT22;9084;50.956;3.106;2022-07-05T00:15:30;15.70;6.20
17918;DHT22;9084;50.956;3.106;2022-07-05T00:17:58;15.60;7.80
17918;DHT22;9084;50.956;3.106;2022-07-05T00:20:24;15.60;9.00
17918;DHT22;9084;50.956;3.106;2022-07-05T00:22:51;15.50;9.40
17918;DHT22;9084;50.956;3.106;2022-07-05T00:25:20;15.50;10.20
17918;DHT22;9084;50.956;3.106;2022-07-05T00:27:45;15.50;10.10
17918;DHT22;9084;50.956;3.106;2022-07-05T00:30:12;15.50;10.40
17918;DHT22;9084;50.956;3.106;2022-07-05T00:33:02;15.40;12.40
17918;DHT22;9084;50.956;3.106;2022-07-05T00:35:28;15.40;14.80
17918;DHT22;9084;50.956;3.106;2022-07-05T00:37:54;15.40;17.50
17918;DHT22;9084;50.956;3.106;2022-07-05T00:40:19;15.40;19.90
17918;DHT22;9084;50.956;3.106;2022-07-05T00:42:47;15.40;20.90
17918;DHT22;9084;50.956;3.106;2022-07-05T00:45:13;15.50;23.30
17918;DHT22;9084;50.956;3.106;2022-07-05T00:47:38;15.50;24.90
17918;DHT22;9084;50.956;3.106;2022-07-05T00:50:07;15.50;25.30
17918;DHT22;9084;50.956;3.106;2022-07-05T00:52:36;15.60;25.90
17918;DHT22;9084;50.956;3.106;2022-07-05T00:55:05;15.70;26.50
17918;DHT22;9084;50.956;3.106;2022-07-05T00:57:31;15.80;25.80
17918;DHT22;9084;50.956;3.106;2022-07-05T00:59:58;15.80;23.50
17918;DHT22;9084;50.956;3.106;2022-07-05T01:02:26;15.90;24.20
17918;DHT22;9084;50.956;3.106;2022-07-05T01:04:54;15.90;25.10
17918;DHT22;9084;50.956;3.106;2022-07-05T01:07:21;15.90;27.10
17918;DHT22;9084;50.956;3.106;2022-07-05T01:09:48;16.00;26.90
17918;DHT22;9084;50.956;3.106;2022-07-05T01:12:15;16.00;26.60
17918;DHT22;9084;50.956;3.106;2022-07-05T01:14:41;16.00;27.40
17918;DHT22;9084;50.956;3.106;2022-07-05T01:17:10;15.90;29.90
17918;DHT22;9084;50.956;3.106;2022-07-05T01:19:37;15.90;31.80
17918;DHT22;9084;50.956;3.106;2022-07-05T01:22:12;16.00;34.20
17918;DHT22;9084;50.956;3.106;2022-07-05T01:24:42;15.80;35.70
17918;DHT22;9084;50.956;3.106;2022-07-05T01:27:09;15.70;37.90
17918;DHT22;9084;50.956;3.106;2022-07-05T01:29:34;15.60;40.50
17918;DHT22;9084;50.956;3.106;2022-07-05T01:32:01;15.60;41.60
17918;DHT22;9084;50.956;3.106;2022-07-05T01:34:26;15.60;41.40
17918;DHT22;9084;50.956;3.106;2022-07-05T01:36:55;15.60;38.80
17918;DHT22;9084;50.956;3.106;2022-07-05T01:39:21;15.60;35.60
17918;DHT22;9084;50.956;3.106;2022-07-05T01:41:48;15.70;32.70
17918;DHT22;9084;50.956;3.106;2022-07-05T01:44:18;15.70;31.20
17918;DHT22;9084;50.956;3.106;2022-07-05T01:46:44;15.70;33.50
17918;DHT22;9084;50.956;3.106;2022-07-05T01:49:14;15.80;31.80
17918;DHT22;9084;50.956;3.106;2022-07-05T01:51:54;15.80;30.40
17918;DHT22;9084;50.956;3.106;2022-07-05T01:54:23;15.80;30.60
17918;DHT22;9084;50.956;3.106;2022-07-05T01:56:51;15.90;29.00
17918;DHT22;9084;50.956;3.106;2022-07-05T01:59:17;15.90;27.20
17918;DHT22;9084;50.956;3.106;2022-07-05T02:01:45;15.90;25.20
17918;DHT22;9084;50.956;3.106;2022-07-05T02:04:13;16.00;23.30
17918;DHT22;9084;50.956;3.106;2022-07-05T02:06:40;15.90;23.70
17918;DHT22;9084;50.956;3.106;2022-07-05T02:09:07;15.90;24.00
17918;DHT22;9084;50.956;3.106;2022-07-05T02:11:34;15.90;26.30
17918;DHT22;9084;50.956;3.106;2022-07-05T02:14:00;15.90;25.60
17918;DHT22;9084;50.956;3.106;2022-07-05T02:16:26;15.80;26.70
17918;DHT22;9084;50.956;3.106;2022-07-05T02:18:57;15.80;27.50
17918;DHT22;9084;50.956;3.106;2022-07-05T02:21:26;15.90;25.10
17918;DHT22;9084;50.956;3.106;2022-07-05T02:23:52;15.80;28.80
17918;DHT22;9084;50.956;3.106;2022-07-05T02:26:20;15.80;27.50
17918;DHT22;9084;50.956;3.106;2022-07-05T02:28:46;15.80;28.30
17918;DHT22;9084;50.956;3.106;2022-07-05T02:31:12;15.70;28.70
17918;DHT22;9084;50.956;3.106;2022-07-05T02:33:38;15.70;31.30
17918;DHT22;9084;50.956;3.106;2022-07-05T02:36:12;15.70;31.90
17918;DHT22;9084;50.956;3.106;2022-07-05T02:38:38;15.60;34.90
17918;DHT22;9084;50.956;3.106;2022-07-05T02:41:05;15.60;37.60
17918;DHT22;9084;50.956;3.106;2022-07-05T02:43:38;15.60;42.20
17918;DHT22;9084;50.956;3.106;2022-07-05T02:46:08;15.60;43.40
17918;DHT22;9084;50.956;3.106;2022-07-05T02:48:35;15.60;46.50
17918;DHT22;9084;50.956;3.106;2022-07-05T02:51:05;15.60;48.30
17918;DHT22;9084;50.956;3.106;2022-07-05T02:53:35;15.50;51.20
17918;DHT22;9084;50.956;3.106;2022-07-05T02:56:03;15.50;54.40
17918;DHT22;9084;50.956;3.106;2022-07-05T02:58:30;15.40;54.60
17918;DHT22;9084;50.956;3.106;2022-07-05T03:00:56;15.40;56.00
17918;DHT22;9084;50.956;3.106;2022-07-05T03:03:27;15.30;55.70
17918;DHT22;9084;50.956;3.106;2022-07-05T03:05:58;15.30;53.80
17918;DHT22;9084;50.956;3.106;2022-07-05T03:08:24;15.20;55.20
17918;DHT22;9084;50.956;3.106;2022-07-05T03:10:49;15.20;57.70
17918;DHT22;9084;50.956;3.106;2022-07-05T03:13:17;15.20;60.20
17918;DHT22;9084;50.956;3.106;2022-07-05T03:15:43;15.10;61.00
17918;DHT22;9084;50.956;3.106;2022-07-05T03:18:09;15.20;60.50
17918;DHT22;9084;50.956;3.106;2022-07-05T03:20:37;15.20;60.30
17918;DHT22;9084;50.956;3.106;2022-07-05T03:23:03;15.20;61.30
17918;DHT22;9084;50.956;3.106;2022-07-05T03:25:29;15.20;59.40
17918;DHT22;9084;50.956;3.106;2022-07-05T03:27:55;15.30;59.20
17918;DHT22;9084;50.956;3.106;2022-07-05T03:30:21;15.30;60.20
17918;DHT22;9084;50.956;3.106;2022-07-05T03:32:50;15.30;63.10
17918;DHT22;9084;50.956;3.106;2022-07-05T03:35:20;15.30;65.40
17918;DHT22;9084;50.956;3.106;2022-07-05T03:37:46;15.30;70.30
17918;DHT22;9084;50.956;3.106;2022-07-05T03:40:15;15.40;71.30
17918;DHT22;9084;50.956;3.106;2022-07-05T03:42:41;15.40;72.40
17918;DHT22;9084;50.956;3.106;2022-07-05T03:45:08;15.50;67.40
17918;DHT22;9084;50.956;3.106;2022-07-05T03:47:34;15.50;64.40
17918;DHT22;9084;50.956;3.106;2022-07-05T03:50:03;15.50;62.80
17918;DHT22;9084;50.956;3.106;2022-07-05T03:52:28;15.50;64.70
17918;DHT22;9084;50.956;3.106;2022-07-05T03:54:55;15.50;63.50
17918;DHT22;9084;50.956;3.106;2022-07-05T03:57:20;15.40;60.40
17918;DHT22;9084;50.956;3.106;2022-07-05T03:59:47;15.40;58.20
17918;DHT22;9084;50.956;3.106;2022-07-05T04:02:14;15.40;57.30
17918;DHT22;9084;50.956;3.106;2022-07-05T04:04:40;15.30;57.30
17918;DHT22;9084;50.956;3.106;2022-07-05T04:07:06;15.30;56.40
17918;DHT22;9084;50.956;3.106;2022-07-05T04:09:32;15.20;62.70
17918;DHT22;9084;50.956;3.106;2022-07-05T04:11:58;15.20;63.20
17918;DHT22;9084;50.956;3.106;2022-07-05T04:14:24;15.20;60.50
17918;DHT22;9084;50.956;3.106;2022-07-05T04:16:54;15.20;63.00
17918;DHT22;9084;50.956;3.106;2022-07-05T04:19:20;15.10;60.40
17918;DHT22;9084;50.956;3.106;2022-07-05T04:21:45;15.10;61.70
17918;DHT22;9084;50.956;3.106;2022-07-05T04:24:11;15.10;62.80
17918;DHT22;9084;50.956;3.106;2022-07-05T04:26:37;15.00;64.20
17918;DHT22;9084;50.956;3.106;2022-07-05T04:29:03;15.00;65.20
17918;DHT22;9084;50.956;3.106;2022-07-05T04:31:29;15.00;65.10
17918;DHT22;9084;50.956;3.106;2022-07-05T04:33:56;15.00;68.90
17918;DHT22;9084;50.956;3.106;2022-07-05T04:36:24;15.00;71.60
17918;DHT22;9084;50.956;3.106;2022-07-05T04:38:50;15.00;72.00
17918;DHT22;9084;50.956;3.106;2022-07-05T04:41:18;15.00;74.60
17918;DHT22;9084;50.956;3.106;2022-07-05T04:43:43;15.00;77.00
17918;DHT22;9084;50.956;3.106;2022-07-05T04:46:09;15.00;76.90
17918;DHT22;9084;50.956;3.106;2022-07-05T04:48:35;15.00;77.50
17918;DHT22;9084;50.956;3.106;2022-07-05T04:51:03;15.10;79.50
17918;DHT22;9084;50.956;3.106;2022-07-05T04:53:29;15.10;79.20
17918;DHT22;9084;50.956;3.106;2022-07-05T04:55:54;15.10;80.80
17918;DHT22;9084;50.956;3.106;2022-07-05T04:58:22;15.10;82.00
17918;DHT22;9084;50.956;3.106;2022-07-05T05:00:51;15.20;82.60
17918;DHT22;9084;50.956;3.106;2022-07-05T05:03:19;15.30;86.70
17918;DHT22;9084;50.956;3.106;2022-07-05T05:05:45;15.40;87.70
17918;DHT22;9084;50.956;3.106;2022-07-05T05:08:11;15.40;84.80
17918;DHT22;9084;50.956;3.106;2022-07-05T05:10:37;15.50;82.80
17918;DHT22;9084;50.956;3.106;2022-07-05T05:13:03;15.50;81.70
17918;DHT22;9084;50.956;3.106;2022-07-05T05:15:31;15.60;79.30
17918;DHT22;9084;50.956;3.106;2022-07-05T05:17:56;15.80;76.80
17918;DHT22;9084;50.956;3.106;2022-07-05T05:20:22;16.00;74.00
17918;DHT22;9084;50.956;3.106;2022-07-05T05:22:52;16.20;71.80
17918;DHT22;9084;50.956;3.106;2022-07-05T05:25:17;16.40;68.60
17918;DHT22;9084;50.956;3.106;2022-07-05T05:27:45;16.50;64.60
17918;DHT22;9084;50.956;3.106;2022-07-05T05:30:12;16.70;59.20
17918;DHT22;9084;50.956;3.106;2022-07-05T05:32:38;16.80;50.00
17918;DHT22;9084;50.956;3.106;2022-07-05T05:35:05;16.80;48.00
17918;DHT22;9084;50.956;3.106;2022-07-05T05:37:45;16.90;42.90
17918;DHT22;9084;50.956;3.106;2022-07-05T05:40:11;17.00;42.70
17918;DHT22;9084;50.956;3.106;2022-07-05T05:42:40;17.10;41.10
17918;DHT22;9084;50.956;3.106;2022-07-05T05:45:06;17.20;36.80
17918;DHT22;9084;50.956;3.106;2022-07-05T05:47:46;17.30;32.10
17918;DHT22;9084;50.956;3.106;2022-07-05T05:50:22;17.40;30.30
17918;DHT22;9084;50.956;3.106;2022-07-05T05:52:49;17.40;31.50
17918;DHT22;9084;50.956;3.106;2022-07-05T05:55:15;17.50;29.00
17918;DHT22;9084;50.956;3.106;2022-07-05T05:57:44;17.50;31.20
17918;DHT22;9084;50.956;3.106;2022-07-05T06:00:11;17.50;27.20
17918;DHT22;9084;50.956;3.106;2022-07-05T06:02:37;17.50;30.30
17918;DHT22;9084;50.956;3.106;2022-07-05T06:05:03;17.50;31.50
17918;DHT22;9084;50.956;3.106;2022-07-05T06:07:50;17.50;31.00
17918;DHT22;9084;50.956;3.106;2022-07-05T06:10:28;17.50;34.80
17918;DHT22;9084;50.956;3.106;2022-07-05T06:12:58;17.60;39.20
17918;DHT22;9084;50.956;3.106;2022-07-05T06:15:24;17.70;38.60
17918;DHT22;9084;50.956;3.106;2022-07-05T06:17:52;17.80;39.70
17918;DHT22;9084;50.956;3.106;2022-07-05T06:20:20;17.90;36.00
17918;DHT22;9084;50.956;3.106;2022-07-05T06:22:49;18.00;37.00
17918;DHT22;9084;50.956;3.106;2022-07-05T06:25:16;18.00;35.10
17918;DHT22;9084;50.956;3.106;2022-07-05T06:27:46;18.00;39.00
17918;DHT22;9084;50.956;3.106;2022-07-05T06:30:17;18.00;37.90
17918;DHT22;9084;50.956;3.106;2022-07-05T06:32:46;18.00;36.80
17918;DHT22;9084;50.956;3.106;2022-07-05T06:35:15;18.00;40.10
17918;DHT22;9084;50.956;3.106;2022-07-05T06:37:57;18.10;38.00
17918;DHT22;9084;50.956;3.106;2022-07-05T06:40:28;18.20;40.90
17918;DHT22;9084;50.956;3.106;2022-07-05T06:42:56;18.30;36.70
17918;DHT22;9084;50.956;3.106;2022-07-05T06:45:23;18.50;32.60
17918;DHT22;9084;50.956;3.106;2022-07-05T06:48:07;18.70;28.50
17918;DHT22;9084;50.956;3.106;2022-07-05T06:50:38;18.80;23.30
17918;DHT22;9084;50.956;3.106;2022-07-05T06:53:06;18.80;21.10
17918;DHT22;9084;50.956;3.106;2022-07-05T06:55:32;18.70;15.90
17918;DHT22;9084;50.956;3.106;2022-07-05T06:58:06;18.70;15.90
17918;DHT22;9084;50.956;3.106;2022-07-05T07:00:32;18.70;16.40
17918;DHT22;9084;50.956;3.106;2022-07-05T07:02:59;18.60;19.10
17918;DHT22;9084;50.956;3.106;2022-07-05T07:05:27;18.60;17.20
17918;DHT22;9084;50.956;3.106;2022-07-05T07:07:56;18.60;21.10
17918;DHT22;9084;50.956;3.106;2022-07-05T07:10:39;18.80;22.70
17918;DHT22;9084;50.956;3.106;2022-07-05T07:13:06;19.10;13.60
17918;DHT22;9084;50.956;3.106;2022-07-05T07:15:32;19.40;5.00
17918;DHT22;9084;50.956;3.106;2022-07-05T07:17:59;19.60;1.00
17918;DHT22;9084;50.956;3.106;2022-07-05T07:20:26;19.60;1.00
17918;DHT22;9084;50.956;3.106;2022-07-05T07:22:53;19.50;1.00
17918;DHT22;9084;50.956;3.106;2022-07-05T07:25:21;19.30;1.00
17918;DHT22;9084;50.956;3.106;2022-07-05T07:27:52;19.10;1.00
17918;DHT22;9084;50.956;3.106;2022-07-05T07:30:26;19.00;5.50
17918;DHT22;9084;50.956;3.106;2022-07-05T07:32:53;19.00;11.80
17918;DHT22;9084;50.956;3.106;2022-07-05T07:35:19;19.10;9.70
17918;DHT22;9084;50.956;3.106;2022-07-05T07:37:46;19.20;1.00
17918;DHT22;9084;50.956;3.106;2022-07-05T07:40:12;19.40;1.00
17918;DHT22;9084;50.956;3.106;2022-07-05T07:42:38;19.50;1.00
17918;DHT22;9084;50.956;3.106;2022-07-05T07:45:04;19.60;1.00
17918;DHT22;9084;50.956;3.106;2022-07-05T07:47:34;19.60;1.00
17918;DHT22;9084;50.956;3.106;2022-07-05T07:50:02;19.50;1.00
17918;DHT22;9084;50.956;3.106;2022-07-05T07:52:35;19.50;1.00
17918;DHT22;9084;50.956;3.106;2022-07-05T07:55:07;19.60;1.00
17918;DHT22;9084;50.956;3.106;2022-07-05T07:57:33;19.80;1.00
17918;DHT22;9084;50.956;3.106;2022-07-05T07:59:59;20.00;1.00
17918;DHT22;9084;50.956;3.106;2022-07-05T08:02:27;20.10;1.00
17918;DHT22;9084;50.956;3.106;2022-07-05T08:04:55;20.20;1.00
17918;DHT22;9084;50.956;3.106;2022-07-05T08:07:26;20.40;1.00
17918;DHT22;9084;50.956;3.106;2022-07-05T08:09:51;20.80;1.00
17918;DHT22;9084;50.956;3.106;2022-07-05T08:12:19;21.10;1.00
17918;DHT22;9084;50.956;3.106;2022-07-05T08:14:47;21.30;1.00
17918;DHT22;9084;50.956;3.106;2022-07-05T08:17:13;21.50;1.00
17918;DHT22;9084;50.956;3.106;2022-07-05T08:19:38;21.50;1.00
17918;DHT22;9084;50.956;3.106;2022-07-05T08:22:25;21.50;1.00
17918;DHT22;9084;50.956;3.106;2022-07-05T08:24:51;21.50;1.00
17918;DHT22;9084;50.956;3.106;2022-07-05T08:27:17;21.60;1.00
17918;DHT22;9084;50.956;3.106;2022-07-05T08:29:43;21.60;1.00
17918;DHT22;9084;50.956;3.106;2022-07-05T08:32:12;21.60;1.00
17918;DHT22;9084;50.956;3.106;2022-07-05T08:34:38;21.70;1.00
17918;DHT22;9084;50.956;3.106;2022-07-05T08:37:05;21.70;1.00
17918;DHT22;9084;50.956;3.106;2022-07-05T08:39:32;21.80;1.00
17918;DHT22;9084;50.956;3.106;2022-07-05T08:41:59;21.70;1.00
17918;DHT22;9084;50.956;3.106;2022-07-05T08:44:29;21.60;1.00
17918;DHT22;9084;50.956;3.106;2022-07-05T08:46:56;21.30;1.00
17918;DHT22;9084;50.956;3.106;2022-07-05T08:49:25;20.90;1.00
17918;DHT22;9084;50.956;3.106;2022-07-05T08:51:51;20.60;1.00
17918;DHT22;9084;50.956;3.106;2022-07-05T08:54:22;20.50;1.00
17918;DHT22;9084;50.956;3.106;2022-07-05T08:56:49;20.50;1.00
17918;DHT22;9084;50.956;3.106;2022-07-05T08:59:15;20.60;1.00
17918;DHT22;9084;50.956;3.106;2022-07-05T09:01:45;20.80;1.00
17918;DHT22;9084;50.956;3.106;2022-07-05T09:04:18;21.00;1.00
17918;DHT22;9084;50.956;3.106;2022-07-05T09:06:46;21.30;1.00
17918;DHT22;9084;50.956;3.106;2022-07-05T09:09:16;21.60;1.00
17918;DHT22;9084;50.956;3.106;2022-07-05T09:11:46;22.00;1.00
17918;DHT22;9084;50.956;3.106;2022-07-05T09:14:25;22.10;1.00
17918;DHT22;9084;50.956;3.106;2022-07-05T09:16:51;22.00;1.00
17918;DHT22;9084;50.956;3.106;2022-07-05T09:19:18;21.80;99.90
17918;DHT22;9084;50.956;3.106;2022-07-05T09:21:46;21.70;1.00
17918;DHT22;9084;50.956;3.106;2022-07-05T09:24:13;21.70;1.00
17918;DHT22;9084;50.956;3.106;2022-07-05T09:26:44;21.70;1.00
17918;DHT22;9084;50.956;3.106;2022-07-05T09:29:11;21.60;1.00
17918;DHT22;9084;50.956;3.106;2022-07-05T09:31:40;21.60;1.00
17918;DHT22;9084;50.956;3.106;2022-07-05T09:34:08;21.70;1.00
17918;DHT22;9084;50.956;3.106;2022-07-05T09:42:18;21.80;1.00
17918;DHT22;9084;50.956;3.106;2022-07-05T09:44:50;21.60;99.90
17918;DHT22;9084;50.956;3.106;2022-07-05T09:47:18;21.50;99.90
17918;DHT22;9084;50.956;3.106;2022-07-05T09:49:55;21.40;1.00
17918;DHT22;9084;50.956;3.106;2022-07-05T09:52:33;21.40;99.90
17918;DHT22;9084;50.956;3.106;2022-07-05T09:55:16;21.70;1.00
17918;DHT22;9084;50.956;3.106;2022-07-05T09:57:47;21.90;99.90
17918;DHT22;9084;50.956;3.106;2022-07-05T10:00:18;21.90;99.90
17918;DHT22;9084;50.956;3.106;2022-07-05T10:02:52;21.70;1.00
17918;DHT22;9084;50.956;3.106;2022-07-05T10:05:23;21.80;99.90
17918;DHT22;9084;50.956;3.106;2022-07-05T10:07:55;22.00;1.00
17918;DHT22;9084;50.956;3.106;2022-07-05T10:10:28;22.30;1.00
17918;DHT22;9084;50.956;3.106;2022-07-05T10:13:02;22.40;1.00
17918;DHT22;9084;50.956;3.106;2022-07-05T10:15:32;22.30;1.00
17918;DHT22;9084;50.956;3.106;2022-07-05T10:18:07;22.10;1.00
17918;DHT22;9084;50.956;3.106;2022-07-05T10:20:45;22.00;1.00
17918;DHT22;9084;50.956;3.106;2022-07-05T10:23:22;22.10;1.00
17918;DHT22;9084;50.956;3.106;2022-07-05T10:25:49;22.40;1.00
17918;DHT22;9084;50.956;3.106;2022-07-05T10:28:16;22.60;1.00
17918;DHT22;9084;50.956;3.106;2022-07-05T10:30:47;22.70;1.00
17918;DHT22;9084;50.956;3.106;2022-07-05T10:33:17;22.80;1.00
17918;DHT22;9084;50.956;3.106;2022-07-05T10:35:46;22.90;99.90
17918;DHT22;9084;50.956;3.106;2022-07-05T10:38:13;22.80;1.00
17918;DHT22;9084;50.956;3.106;2022-07-05T10:40:44;22.90;99.90
17918;DHT22;9084;50.956;3.106;2022-07-05T10:43:13;22.90;99.90
17918;DHT22;9084;50.956;3.106;2022-07-05T10:45:40;22.90;99.90
17918;DHT22;9084;50.956;3.106;2022-07-05T10:48:23;22.90;1.00
17918;DHT22;9084;50.956;3.106;2022-07-05T10:53:25;22.80;1.70
17918;DHT22;9084;50.956;3.106;2022-07-05T10:55:54;22.60;1.00
17918;DHT22;9084;50.956;3.106;2022-07-05T10:58:29;22.60;32.20
17918;DHT22;9084;50.956;3.106;2022-07-05T11:03:52;22.50;1.00
17918;DHT22;9084;50.956;3.106;2022-07-05T11:06:26;22.40;1.00
17918;DHT22;9084;50.956;3.106;2022-07-05T11:11:35;22.20;99.90
17918;DHT22;9084;50.956;3.106;2022-07-05T11:22:39;22.00;1.00
17918;DHT22;9084;50.956;3.106;2022-07-05T11:25:08;21.90;1.00
17918;DHT22;9084;50.956;3.106;2022-07-05T11:28:11;22.00;1.00
17918;DHT22;9084;50.956;3.106;2022-07-05T11:30:54;22.20;1.00
17918;DHT22;9084;50.956;3.106;2022-07-05T11:33:34;22.40;1.00
17918;DHT22;9084;50.956;3.106;2022-07-05T11:36:02;22.40;1.00
17918;DHT22;9084;50.956;3.106;2022-07-05T11:38:29;22.40;1.00
17918;DHT22;9084;50.956;3.106;2022-07-05T11:41:10;22.40;1.00
17918;DHT22;9084;50.956;3.106;2022-07-05T11:43:37;22.50;99.90
17918;DHT22;9084;50.956;3.106;2022-07-05T11:46:05;22.40;39.80
17918;DHT22;9084;50.956;3.106;2022-07-05T11:48:31;22.60;99.90
17918;DHT22;9084;50.956;3.106;2022-07-05T11:50:57;22.60;99.90
17918;DHT22;9084;50.956;3.106;2022-07-05T11:53:27;22.70;1.00
17918;DHT22;9084;50.956;3.106;2022-07-05T11:55:54;22.90;1.00
17918;DHT22;9084;50.956;3.106;2022-07-05T11:58:20;22.80;1.00
17918;DHT22;9084;50.956;3.106;2022-07-05T12:00:54;22.70;1.00
17918;DHT22;9084;50.956;3.106;2022-07-05T12:03:26;22.80;1.00
17918;DHT22;9084;50.956;3.106;2022-07-05T12:05:52;22.70;1.00
17918;DHT22;9084;50.956;3.106;2022-07-05T12:08:24;22.60;99.90
17918;DHT22;9084;50.956;3.106;2022-07-05T12:10:52;22.50;1.00
17918;DHT22;9084;50.956;3.106;2022-07-05T12:13:46;22.60;1.00
17918;DHT22;9084;50.956;3.106;2022-07-05T12:16:15;22.80;1.00
17918;DHT22;9084;50.956;3.106;2022-07-05T12:18:48;22.90;99.90
17918;DHT22;9084;50.956;3.106;2022-07-05T12:21:14;23.10;60.50
17918;DHT22;9084;50.956;3.106;2022-07-05T12:23:46;23.30;1.00
17918;DHT22;9084;50.956;3.106;2022-07-05T12:26:14;23.40;1.00
17918;DHT22;9084;50.956;3.106;2022-07-05T12:28:43;23.40;99.90
17918;DHT22;9084;50.956;3.106;2022-07-05T12:31:16;23.40;99.90
17918;DHT22;9084;50.956;3.106;2022-07-05T12:33:42;23.20;99.90
17918;DHT22;9084;50.956;3.106;2022-07-05T12:36:16;23.30;1.00
17918;DHT22;9084;50.956;3.106;2022-07-05T12:38:43;23.20;1.00
17918;DHT22;9084;50.956;3.106;2022-07-05T12:41:09;23.10;1.00
17918;DHT22;9084;50.956;3.106;2022-07-05T12:43:59;23.00;1.00
17918;DHT22;9084;50.956;3.106;2022-07-05T12:46:37;23.00;1.00
17918;DHT22;9084;50.956;3.106;2022-07-05T12:49:03;22.80;1.00
17918;DHT22;9084;50.956;3.106;2022-07-05T12:51:36;22.60;1.00
17918;DHT22;9084;50.956;3.106;2022-07-05T12:54:03;22.50;1.00
17918;DHT22;9084;50.956;3.106;2022-07-05T12:56:51;22.50;1.00
17918;DHT22;9084;50.956;3.106;2022-07-05T12:59:38;22.70;99.90
17918;DHT22;9084;50.956;3.106;2022-07-05T13:02:06;22.80;1.00
17918;DHT22;9084;50.956;3.106;2022-07-05T13:04:32;22.70;1.00
17918;DHT22;9084;50.956;3.106;2022-07-05T13:06:59;22.70;1.00
17918;DHT22;9084;50.956;3.106;2022-07-05T13:12:18;22.50;99.90
17918;DHT22;9084;50.956;3.106;2022-07-05T13:14:48;22.40;99.90
17918;DHT22;9084;50.956;3.106;2022-07-05T13:17:21;22.30;99.90
17918;DHT22;9084;50.956;3.106;2022-07-05T13:19:49;22.20;1.00
17918;DHT22;9084;50.956;3.106;2022-07-05T13:22:15;22.00;42.20
17918;DHT22;9084;50.956;3.106;2022-07-05T13:24:42;21.70;1.00
17918;DHT22;9084;50.956;3.106;2022-07-05T13:27:08;21.70;99.90
17918;DHT22;9084;50.956;3.106;2022-07-05T13:29:39;21.90;1.00
17918;DHT22;9084;50.956;3.106;2022-07-05T13:32:05;22.10;1.00
17918;DHT22;9084;50.956;3.106;2022-07-05T13:34:31;22.30;1.00
17918;DHT22;9084;50.956;3.106;2022-07-05T13:36:58;22.60;1.00
17918;DHT22;9084;50.956;3.106;2022-07-05T13:39:28;22.60;1.00
17918;DHT22;9084;50.956;3.106;2022-07-05T13:41:55;22.70;1.00
17918;DHT22;9084;50.956;3.106;2022-07-05T13:44:21;22.80;99.90
17918;DHT22;9084;50.956;3.106;2022-07-05T13:46:48;22.80;95.30
17918;DHT22;9084;50.956;3.106;2022-07-05T13:49:14;22.70;1.00
17918;DHT22;9084;50.956;3.106;2022-07-05T13:51:41;22.60;1.00
17918;DHT22;9084;50.956;3.106;2022-07-05T13:54:06;22.50;1.00
17918;DHT22;9084;50.956;3.106;2022-07-05T13:56:32;22.50;99.90
17918;DHT22;9084;50.956;3.106;2022-07-05T13:58:58;22.60;99.90
17918;DHT22;9084;50.956;3.106;2022-07-05T14:01:27;22.70;99.90
17918;DHT22;9084;50.956;3.106;2022-07-05T14:03:58;22.80;1.00
17918;DHT22;9084;50.956;3.106;2022-07-05T14:06:25;22.90;99.90
17918;DHT22;9084;50.956;3.106;2022-07-05T14:08:51;23.10;99.90
17918;DHT22;9084;50.956;3.106;2022-07-05T14:11:19;23.40;1.00
17918;DHT22;9084;50.956;3.106;2022-07-05T14:13:45;23.50;1.00
17918;DHT22;9084;50.956;3.106;2022-07-05T14:16:11;23.50;99.90
17918;DHT22;9084;50.956;3.106;2022-07-05T14:18:37;23.50;1.00
17918;DHT22;9084;50.956;3.106;2022-07-05T14:21:03;23.40;1.00
17918;DHT22;9084;50.956;3.106;2022-07-05T14:23:33;23.40;1.00
17918;DHT22;9084;50.956;3.106;2022-07-05T14:25:59;23.30;1.00
17918;DHT22;9084;50.956;3.106;2022-07-05T14:28:25;23.20;1.00
17918;DHT22;9084;50.956;3.106;2022-07-05T14:30:51;23.10;1.00
17918;DHT22;9084;50.956;3.106;2022-07-05T14:33:16;22.90;42.30
17918;DHT22;9084;50.956;3.106;2022-07-05T14:35:45;22.80;99.90
17918;DHT22;9084;50.956;3.106;2022-07-05T14:38:13;22.60;99.90
17918;DHT22;9084;50.956;3.106;2022-07-05T14:40:39;22.20;99.90
17918;DHT22;9084;50.956;3.106;2022-07-05T14:43:05;22.20;1.00
17918;DHT22;9084;50.956;3.106;2022-07-05T14:45:32;22.10;99.90
17918;DHT22;9084;50.956;3.106;2022-07-05T14:47:58;22.00;1.00
17918;DHT22;9084;50.956;3.106;2022-07-05T14:50:24;22.10;1.00
17918;DHT22;9084;50.956;3.106;2022-07-05T14:52:50;22.00;99.90
17918;DHT22;9084;50.956;3.106;2022-07-05T14:55:18;22.00;1.00
17918;DHT22;9084;50.956;3.106;2022-07-05T14:57:45;22.00;1.00
17918;DHT22;9084;50.956;3.106;2022-07-05T15:00:18;22.10;1.00
17918;DHT22;9084;50.956;3.106;2022-07-05T15:02:43;22.20;99.90
17918;DHT22;9084;50.956;3.106;2022-07-05T15:05:13;22.30;99.90
17918;DHT22;9084;50.956;3.106;2022-07-05T15:07:41;22.40;1.00
17918;DHT22;9084;50.956;3.106;2022-07-05T15:10:08;22.50;1.00
17918;DHT22;9084;50.956;3.106;2022-07-05T15:12:34;22.60;99.90
17918;DHT22;9084;50.956;3.106;2022-07-05T15:15:00;22.60;99.90
17918;DHT22;9084;50.956;3.106;2022-07-05T15:17:26;22.60;1.00
17918;DHT22;9084;50.956;3.106;2022-07-05T15:19:54;22.70;1.00
17918;DHT22;9084;50.956;3.106;2022-07-05T15:22:20;22.70;1.00
17918;DHT22;9084;50.956;3.106;2022-07-05T15:24:46;22.60;1.00
17918;DHT22;9084;50.956;3.106;2022-07-05T15:27:12;22.70;99.90
17918;DHT22;9084;50.956;3.106;2022-07-05T15:29:37;22.70;1.00
17918;DHT22;9084;50.956;3.106;2022-07-05T15:32:03;22.70;13.30
17918;DHT22;9084;50.956;3.106;2022-07-05T15:34:32;22.70;98.00
17918;DHT22;9084;50.956;3.106;2022-07-05T15:37:00;22.90;1.00
17918;DHT22;9084;50.956;3.106;2022-07-05T15:39:26;22.80;1.00
17918;DHT22;9084;50.956;3.106;2022-07-05T15:41:54;22.80;1.00
17918;DHT22;9084;50.956;3.106;2022-07-05T15:44:20;22.90;1.00
17918;DHT22;9084;50.956;3.106;2022-07-05T15:46:45;22.80;1.00
17918;DHT22;9084;50.956;3.106;2022-07-05T15:49:35;22.90;1.00
17918;DHT22;9084;50.956;3.106;2022-07-05T15:52:01;23.00;1.00
17918;DHT22;9084;50.956;3.106;2022-07-05T15:54:28;22.90;1.00
17918;DHT22;9084;50.956;3.106;2022-07-05T15:56:56;22.80;99.90
17918;DHT22;9084;50.956;3.106;2022-07-05T15:59:23;22.80;1.00
17918;DHT22;9084;50.956;3.106;2022-07-05T16:01:52;22.70;1.00
17918;DHT22;9084;50.956;3.106;2022-07-05T16:04:18;22.70;1.00
17918;DHT22;9084;50.956;3.106;2022-07-05T16:06:48;22.80;1.00
17918;DHT22;9084;50.956;3.106;2022-07-05T16:09:15;22.80;1.00
17918;DHT22;9084;50.956;3.106;2022-07-05T16:11:43;22.80;99.90
17918;DHT22;9084;50.956;3.106;2022-07-05T16:14:11;22.80;1.00
17918;DHT22;9084;50.956;3.106;2022-07-05T16:16:37;22.70;1.00
17918;DHT22;9084;50.956;3.106;2022-07-05T16:19:03;22.70;1.00
17918;DHT22;9084;50.956;3.106;2022-07-05T16:21:29;22.70;1.00
17918;DHT22;9084;50.956;3.106;2022-07-05T16:23:56;22.90;1.00
17918;DHT22;9084;50.956;3.106;2022-07-05T16:26:23;23.00;1.00